Time;durP1;ratioP1;P1;durP2;ratioP2;P2;SDS_P1;SDS_P2;PMS_P1;PMS_P2;Temp;Humidity;BMP_temperature;BMP_pressure;BME280_temperature;BME280_humidity;BME280_pressure;Samples;Min_cycle;Max_cycle;Signal;HPM_P1;HPM_P2
2023/05/30 00:00:36;;;;;;;12.27;2.65;;;11.90;99.90;;;;;;5054716;28;20029;-53
2023/05/30 00:03:04;;;;;;;16.88;3.30;;;11.80;99.90;;;;;;5052218;28;20096;-56
2023/05/30 00:05:30;;;;;;;15.98;3.05;;;11.80;99.90;;;;;;5054163;28;20041;-56
2023/05/30 00:07:56;;;;;;;12.32;3.13;;;11.90;99.90;;;;;;5053716;28;20045;-54
2023/05/30 00:10:22;;;;;;;12.85;2.60;;;11.70;99.90;;;;;;5051970;28;20565;-54
2023/05/30 00:12:49;;;;;;;22.95;3.60;;;11.50;99.90;;;;;;5060868;28;20028;-53
2023/05/30 00:15:16;;;;;;;14.15;2.97;;;11.40;99.90;;;;;;5055708;28;20029;-54
2023/05/30 00:17:41;;;;;;;10.75;2.80;;;11.50;99.90;;;;;;5057361;28;20044;-55
2023/05/30 00:20:08;;;;;;;11.48;2.53;;;11.40;99.90;;;;;;5050595;28;20148;-53
2023/05/30 00:22:36;;;;;;;14.02;3.28;;;11.40;99.90;;;;;;5049712;28;20075;-53
2023/05/30 00:25:03;;;;;;;12.65;2.85;;;11.60;99.90;;;;;;5054496;28;20037;-55
2023/05/30 00:27:28;;;;;;;16.02;2.92;;;11.60;99.90;;;;;;5053578;28;20056;-54
2023/05/30 00:29:54;;;;;;;14.50;3.05;;;11.50;99.90;;;;;;5051705;28;20554;-54
2023/05/30 00:32:19;;;;;;;10.93;2.67;;;11.60;99.90;;;;;;5056492;28;20173;-54
2023/05/30 00:34:45;;;;;;;13.02;2.58;;;11.60;99.90;;;;;;5051396;28;20519;-53
2023/05/30 00:37:12;;;;;;;16.73;3.08;;;11.40;99.90;;;;;;5056098;28;20059;-54
2023/05/30 00:39:37;;;;;;;12.80;2.90;;;11.50;99.90;;;;;;5052135;28;20111;-52
2023/05/30 00:42:04;;;;;;;13.00;3.03;;;11.40;99.90;;;;;;5057684;28;20032;-54
2023/05/30 00:44:30;;;;;;;14.48;2.92;;;11.40;99.90;;;;;;5053849;28;20549;-54
2023/05/30 00:46:56;;;;;;;14.30;3.15;;;11.40;99.90;;;;;;5053946;28;20056;-55
2023/05/30 00:49:22;;;;;;;17.58;2.92;;;11.40;99.90;;;;;;5056296;28;20135;-54
2023/05/30 00:51:48;;;;;;;15.55;3.25;;;11.10;99.90;;;;;;5049956;28;20434;-54
2023/05/30 00:54:14;;;;;;;11.95;3.08;;;11.30;99.90;;;;;;5052247;28;20487;-53
2023/05/30 00:56:40;;;;;;;13.75;2.90;;;11.20;99.90;;;;;;5053126;28;20025;-52
2023/05/30 00:59:06;;;;;;;15.35;3.00;;;11.20;99.90;;;;;;5056016;28;20020;-54
2023/05/30 01:01:32;;;;;;;14.27;3.25;;;11.00;99.90;;;;;;5060468;28;20568;-54
2023/05/30 01:03:59;;;;;;;17.02;3.08;;;11.20;99.90;;;;;;5054642;28;20239;-53
2023/05/30 01:06:27;;;;;;;14.50;3.50;;;11.10;99.90;;;;;;5056723;28;20033;-54
2023/05/30 01:08:54;;;;;;;16.33;3.13;;;11.10;99.90;;;;;;5054836;28;20069;-54
2023/05/30 01:11:41;;;;;;;11.20;2.95;;;10.80;99.90;;;;;;5052085;28;20044;-53
2023/05/30 01:14:16;;;;;;;12.20;2.92;;;10.60;99.90;;;;;;5051186;28;20400;-54
2023/05/30 01:16:50;;;;;;;15.32;3.33;;;10.70;99.90;;;;;;5054570;28;20044;-54
2023/05/30 01:19:27;;;;;;;15.13;2.80;;;10.90;99.90;;;;;;5050111;28;20040;-53
2023/05/30 01:22:16;;;;;;;15.25;3.35;;;10.90;99.90;;;;;;5053757;28;20044;-54
2023/05/30 01:24:50;;;;;;;12.55;2.92;;;10.70;99.90;;;;;;5052013;28;20471;-53
2023/05/30 01:27:22;;;;;;;16.52;3.05;;;10.70;99.90;;;;;;5052853;28;20481;-53
2023/05/30 01:29:48;;;;;;;11.35;2.72;;;10.60;99.90;;;;;;5055403;28;20463;-54
2023/05/30 01:32:15;;;;;;;16.13;3.00;;;10.70;99.90;;;;;;5058324;28;20064;-53
2023/05/30 01:34:41;;;;;;;14.82;2.90;;;10.50;99.90;;;;;;5050957;28;20033;-53
2023/05/30 01:37:06;;;;;;;15.40;3.40;;;10.50;99.90;;;;;;5054849;28;20128;-53
2023/05/30 01:39:32;;;;;;;14.88;3.40;;;10.40;99.90;;;;;;5051905;28;20323;-55
2023/05/30 01:42:22;;;;;;;14.15;3.10;;;10.40;99.90;;;;;;5058645;28;20024;-53
2023/05/30 01:45:07;;;;;;;17.13;3.47;;;10.50;99.90;;;;;;5054292;28;20119;-54
2023/05/30 01:47:49;;;;;;;12.45;2.90;;;10.40;99.90;;;;;;5056020;28;20131;-54
2023/05/30 01:50:19;;;;;;;18.33;3.38;;;10.40;99.90;;;;;;5056412;28;20037;-54
2023/05/30 01:52:50;;;;;;;16.40;3.55;;;10.20;99.90;;;;;;5055349;28;20089;-53
2023/05/30 01:55:17;;;;;;;10.52;2.65;;;10.30;99.90;;;;;;5053074;28;20539;-53
2023/05/30 01:57:50;;;;;;;17.58;3.33;;;10.30;99.90;;;;;;5051813;28;20044;-54
2023/05/30 02:00:17;;;;;;;17.50;3.55;;;10.20;99.90;;;;;;5053703;28;20515;-54
2023/05/30 02:02:43;;;;;;;15.05;3.63;;;10.20;99.90;;;;;;5053928;28;20086;-52
2023/05/30 02:05:09;;;;;;;12.07;3.40;;;10.20;99.90;;;;;;5058852;28;20036;-52
2023/05/30 02:07:35;;;;;;;16.00;3.33;;;10.30;99.90;;;;;;5061210;28;20109;-54
2023/05/30 02:10:00;;;;;;;19.27;3.65;;;10.10;99.90;;;;;;5052838;28;20082;-52
2023/05/30 02:12:26;;;;;;;15.70;3.30;;;10.20;99.90;;;;;;5053681;28;20031;-53
2023/05/30 02:14:52;;;;;;;16.30;3.55;;;10.20;99.90;;;;;;5060610;28;20036;-53
2023/05/30 02:17:20;;;;;;;16.05;3.33;;;10.30;99.90;;;;;;5055391;28;20083;-54
2023/05/30 02:19:47;;;;;;;20.40;3.92;;;10.20;99.90;;;;;;5055511;28;20395;-53
2023/05/30 02:22:13;;;;;;;15.23;3.38;;;10.00;99.90;;;;;;5057674;28;20865;-52
2023/05/30 02:24:38;;;;;;;13.75;3.58;;;10.10;99.90;;;;;;5059319;28;20040;-55
2023/05/30 02:27:04;;;;;;;19.25;3.88;;;10.10;99.90;;;;;;5050854;28;20036;-53
2023/05/30 02:29:30;;;;;;;16.77;3.63;;;10.20;99.90;;;;;;5055983;28;20035;-52
2023/05/30 02:31:55;;;;;;;18.23;4.03;;;10.10;99.90;;;;;;5059908;28;20040;-53
2023/05/30 02:34:21;;;;;;;20.80;3.85;;;10.20;99.90;;;;;;5056572;28;20124;-54
2023/05/30 02:36:46;;;;;;;17.13;3.80;;;9.90;99.90;;;;;;5055352;28;20037;-53
2023/05/30 02:39:12;;;;;;;14.98;3.20;;;9.90;99.90;;;;;;5052374;28;20040;-54
2023/05/30 02:41:38;;;;;;;15.18;3.25;;;10.00;99.90;;;;;;5052639;28;20086;-53
2023/05/30 02:44:04;;;;;;;10.55;3.53;;;10.20;99.90;;;;;;5057440;28;20194;-54
2023/05/30 02:46:30;;;;;;;22.42;4.13;;;10.30;99.90;;;;;;5061490;28;20115;-52
2023/05/30 02:48:56;;;;;;;20.63;4.05;;;10.10;99.90;;;;;;5060751;28;20206;-53
2023/05/30 02:51:21;;;;;;;15.93;3.40;;;10.00;99.90;;;;;;5054316;28;20043;-54
2023/05/30 02:53:47;;;;;;;15.20;3.70;;;9.90;99.90;;;;;;5062435;28;20039;-51
2023/05/30 02:56:12;;;;;;;19.40;4.50;;;9.80;99.90;;;;;;5059899;28;20055;-51
2023/05/30 02:58:38;;;;;;;20.83;3.90;;;9.70;99.90;;;;;;5059835;28;20219;-53
2023/05/30 03:01:03;;;;;;;17.30;4.03;;;9.70;99.90;;;;;;5054148;28;20029;-54
2023/05/30 03:03:29;;;;;;;18.67;3.80;;;9.80;99.90;;;;;;5055610;28;20421;-53
2023/05/30 03:05:57;;;;;;;20.63;4.75;;;9.60;99.90;;;;;;5059366;28;20043;-54
2023/05/30 03:08:23;;;;;;;18.83;4.00;;;9.60;99.90;;;;;;5056904;28;20107;-52
2023/05/30 03:10:48;;;;;;;22.80;3.85;;;9.80;99.90;;;;;;5047041;28;20044;-53
2023/05/30 03:13:14;;;;;;;25.52;4.55;;;9.80;99.90;;;;;;5046851;28;20487;-53
2023/05/30 03:15:40;;;;;;;22.05;4.63;;;9.70;99.90;;;;;;5052207;28;20033;-52
2023/05/30 03:18:05;;;;;;;20.92;4.25;;;9.60;99.90;;;;;;5050866;28;20036;-54
2023/05/30 03:20:31;;;;;;;22.20;4.85;;;9.60;99.90;;;;;;5053853;28;20052;-53
2023/05/30 03:22:57;;;;;;;23.52;3.85;;;9.70;99.90;;;;;;5047091;28;20036;-54
2023/05/30 03:25:22;;;;;;;21.02;4.30;;;9.60;99.90;;;;;;5051626;28;20052;-54
2023/05/30 03:27:50;;;;;;;20.65;4.40;;;9.60;99.90;;;;;;5047481;28;20444;-53
2023/05/30 03:30:18;;;;;;;22.75;4.68;;;9.50;99.90;;;;;;5050164;28;20033;-53
2023/05/30 03:32:43;;;;;;;18.42;4.13;;;9.50;99.90;;;;;;5052709;28;20052;-54
2023/05/30 03:35:09;;;;;;;16.50;4.07;;;9.40;99.90;;;;;;5046577;28;20501;-53
2023/05/30 03:37:35;;;;;;;18.27;4.20;;;9.40;99.90;;;;;;5055523;28;20029;-53
2023/05/30 03:40:00;;;;;;;17.88;4.82;;;9.40;99.90;;;;;;5052566;28;20091;-52
2023/05/30 03:42:26;;;;;;;17.77;4.55;;;9.50;99.90;;;;;;5053186;28;20048;-51
2023/05/30 03:44:51;;;;;;;22.83;4.55;;;9.50;99.90;;;;;;5052851;28;20538;-50
2023/05/30 03:47:17;;;;;;;19.80;4.28;;;9.70;99.90;;;;;;5046180;28;20033;-51
2023/05/30 03:49:43;;;;;;;17.42;4.63;;;9.80;99.90;;;;;;5048553;28;20094;-52
2023/05/30 03:52:08;;;;;;;20.27;4.97;;;9.60;99.90;;;;;;5049494;28;20029;-52
2023/05/30 03:54:34;;;;;;;26.90;5.30;;;9.70;99.90;;;;;;5050492;28;20033;-53
2023/05/30 03:57:00;;;;;;;22.25;4.82;;;9.90;99.90;;;;;;5050807;28;20432;-53
2023/05/30 03:59:25;;;;;;;20.27;4.40;;;9.90;99.90;;;;;;5046213;28;20802;-51
2023/05/30 04:01:51;;;;;;;28.70;5.18;;;9.70;99.90;;;;;;5047154;28;20079;-52
2023/05/30 04:04:16;;;;;;;27.45;5.57;;;9.80;99.90;;;;;;5048027;28;20060;-53
2023/05/30 04:06:42;;;;;;;24.40;6.07;;;10.00;99.90;;;;;;5053368;28;20505;-53
2023/05/30 04:09:07;;;;;;;16.73;4.90;;;9.90;99.90;;;;;;5048817;28;20451;-52
2023/05/30 04:11:33;;;;;;;24.13;5.55;;;9.90;99.90;;;;;;5053789;28;20494;-52
2023/05/30 04:13:59;;;;;;;25.63;6.65;;;10.00;99.90;;;;;;5055106;28;20373;-50
2023/05/30 04:16:24;;;;;;;19.75;6.13;;;9.90;99.90;;;;;;5058939;28;20112;-53
2023/05/30 04:18:50;;;;;;;18.08;5.90;;;9.80;99.90;;;;;;5053603;28;20051;-54
2023/05/30 04:21:15;;;;;;;21.90;6.45;;;9.90;99.90;;;;;;5055473;28;20039;-52
2023/05/30 04:23:41;;;;;;;21.65;5.93;;;10.10;99.90;;;;;;5061183;28;20052;-49
2023/05/30 04:26:08;;;;;;;21.55;6.65;;;10.20;99.90;;;;;;5051422;28;20029;-54
2023/05/30 04:28:38;;;;;;;25.65;7.47;;;10.00;99.90;;;;;;5059038;28;20469;-51
2023/05/30 04:31:05;;;;;;;24.90;7.15;;;10.10;99.90;;;;;;5057216;28;20528;-52
2023/05/30 04:33:35;;;;;;;25.13;6.82;;;10.30;99.90;;;;;;5056051;28;20436;-52
2023/05/30 04:36:05;;;;;;;21.52;7.22;;;10.30;99.90;;;;;;5050827;28;20112;-53
2023/05/30 04:38:32;;;;;;;24.45;7.88;;;10.40;99.90;;;;;;5054793;28;20695;-54
2023/05/30 04:41:00;;;;;;;25.75;8.10;;;10.30;99.90;;;;;;5057190;28;20409;-53
2023/05/30 04:43:27;;;;;;;19.15;7.60;;;10.20;99.90;;;;;;5054228;28;20460;-52
2023/05/30 04:45:52;;;;;;;24.92;9.15;;;10.10;99.90;;;;;;5058801;28;20454;-52
2023/05/30 04:48:18;;;;;;;23.75;9.25;;;10.30;99.90;;;;;;5054988;28;20025;-53
2023/05/30 04:50:47;;;;;;;23.48;9.63;;;10.20;99.90;;;;;;5056469;28;20091;-56
2023/05/30 04:53:15;;;;;;;20.77;9.57;;;10.30;99.90;;;;;;5059203;28;20017;-56
2023/05/30 04:55:44;;;;;;;23.58;10.38;;;10.40;99.90;;;;;;5053095;28;20071;-56
2023/05/30 04:58:13;;;;;;;28.17;10.43;;;10.40;99.90;;;;;;5057958;28;20035;-55
2023/05/30 05:00:40;;;;;;;21.67;10.93;;;10.40;99.90;;;;;;5051862;28;20385;-56
2023/05/30 05:03:07;;;;;;;28.38;10.35;;;10.40;99.90;;;;;;5053594;28;20111;-56
2023/05/30 05:05:33;;;;;;;27.52;9.93;;;10.50;99.90;;;;;;5060576;28;20036;-56
2023/05/30 05:07:59;;;;;;;24.77;10.48;;;10.40;99.90;;;;;;5052695;28;20473;-56
2023/05/30 05:10:25;;;;;;;22.50;10.82;;;10.60;99.90;;;;;;5053096;28;20512;-56
2023/05/30 05:12:51;;;;;;;24.30;10.85;;;10.60;99.90;;;;;;5058939;28;20045;-56
2023/05/30 05:15:17;;;;;;;21.83;11.40;;;10.50;99.90;;;;;;5058382;28;20035;-56
2023/05/30 05:17:43;;;;;;;27.77;11.85;;;10.60;99.90;;;;;;5055495;28;20443;-56
2023/05/30 05:20:09;;;;;;;24.05;12.90;;;10.80;99.90;;;;;;5058898;28;20465;-56
2023/05/30 05:22:35;;;;;;;27.20;13.50;;;10.80;99.90;;;;;;5054906;28;20484;-56
2023/05/30 05:25:01;;;;;;;28.80;13.00;;;10.70;99.90;;;;;;5059366;28;20037;-56
2023/05/30 05:27:28;;;;;;;32.28;14.30;;;10.60;99.90;;;;;;5058252;28;20104;-56
2023/05/30 05:29:54;;;;;;;28.85;13.60;;;10.60;99.90;;;;;;5058335;28;20036;-55
2023/05/30 05:32:19;;;;;;;25.05;12.15;;;10.80;99.90;;;;;;5054867;28;20396;-56
2023/05/30 05:34:45;;;;;;;25.42;12.18;;;10.80;99.90;;;;;;5056919;28;20365;-56
2023/05/30 05:37:11;;;;;;;25.13;12.20;;;10.80;99.90;;;;;;5057349;28;20062;-56
2023/05/30 05:39:36;;;;;;;28.55;13.63;;;11.10;99.90;;;;;;5053578;28;20598;-56
2023/05/30 05:42:02;;;;;;;22.70;13.60;;;11.10;99.90;;;;;;5049623;28;20040;-57
2023/05/30 05:44:29;;;;;;;20.70;12.70;;;11.00;99.90;;;;;;5054039;28;20041;-56
2023/05/30 05:46:55;;;;;;;22.38;13.35;;;11.00;99.90;;;;;;5053771;28;20552;-56
2023/05/30 05:49:21;;;;;;;28.67;13.95;;;11.20;99.90;;;;;;5053158;28;20037;-56
2023/05/30 05:51:46;;;;;;;27.40;13.32;;;11.40;99.90;;;;;;5050886;28;20052;-56
2023/05/30 05:54:12;;;;;;;26.30;13.98;;;11.40;99.90;;;;;;5054256;28;20780;-56
2023/05/30 05:56:37;;;;;;;26.77;12.77;;;11.50;99.90;;;;;;5055846;28;20036;-56
2023/05/30 05:59:03;;;;;;;21.45;11.65;;;11.50;99.90;;;;;;5051412;28;20083;-57
2023/05/30 06:01:29;;;;;;;24.05;11.93;;;11.50;99.90;;;;;;5056932;28;20035;-56
2023/05/30 06:03:54;;;;;;;23.13;11.95;;;11.60;99.90;;;;;;5056755;28;20044;-56
2023/05/30 06:06:20;;;;;;;25.17;11.80;;;11.50;99.90;;;;;;5051323;28;20025;-56
2023/05/30 06:08:46;;;;;;;21.60;11.27;;;11.60;99.90;;;;;;5054018;28;20083;-56
2023/05/30 06:11:12;;;;;;;32.05;13.75;;;11.60;99.90;;;;;;5054611;28;20626;-56
2023/05/30 06:13:38;;;;;;;25.30;13.43;;;11.80;99.90;;;;;;5057843;28;20036;-57
2023/05/30 06:16:04;;;;;;;27.45;12.00;;;11.80;99.90;;;;;;5053969;28;20238;-58
2023/05/30 06:18:29;;;;;;;27.65;12.65;;;11.70;99.90;;;;;;5046012;28;20067;-56
2023/05/30 06:20:55;;;;;;;24.30;12.50;;;11.70;99.90;;;;;;5052551;28;20056;-56
2023/05/30 06:23:21;;;;;;;25.50;13.15;;;11.80;99.90;;;;;;5049252;28;20028;-56
2023/05/30 06:25:46;;;;;;;27.95;13.15;;;11.90;99.90;;;;;;5057661;28;20129;-56
2023/05/30 06:28:12;;;;;;;26.40;13.52;;;11.70;99.90;;;;;;5052865;28;20440;-56
2023/05/30 06:30:38;;;;;;;26.52;12.68;;;11.90;99.90;;;;;;5055084;28;20045;-56
2023/05/30 06:33:03;;;;;;;25.45;13.70;;;11.90;99.90;;;;;;5052471;28;20076;-56
2023/05/30 06:35:29;;;;;;;30.85;13.23;;;11.90;99.90;;;;;;5052578;28;20047;-55
2023/05/30 06:37:54;;;;;;;21.15;11.93;;;11.90;99.90;;;;;;5058420;28;20144;-56
2023/05/30 06:40:20;;;;;;;30.10;13.10;;;12.00;99.90;;;;;;5047292;28;20029;-55
2023/05/30 06:42:45;;;;;;;23.80;11.93;;;12.10;99.90;;;;;;5047512;28;20033;-55
2023/05/30 06:45:12;;;;;;;25.17;12.85;;;12.20;99.90;;;;;;5044479;28;20393;-56
2023/05/30 06:47:38;;;;;;;22.73;10.57;;;12.20;99.90;;;;;;5051730;28;20041;-56
2023/05/30 06:50:06;;;;;;;23.88;11.50;;;12.20;99.90;;;;;;5046341;28;20122;-56
2023/05/30 06:52:31;;;;;;;27.35;13.75;;;12.10;99.90;;;;;;5044402;28;20068;-56
2023/05/30 06:54:57;;;;;;;26.23;13.18;;;12.10;99.90;;;;;;5054221;28;20056;-56
2023/05/30 06:57:23;;;;;;;24.63;11.65;;;12.20;99.90;;;;;;5054997;28;20037;-56
2023/05/30 06:59:49;;;;;;;25.17;12.02;;;12.80;99.90;;;;;;5046846;28;20525;-56
2023/05/30 07:02:15;;;;;;;27.15;12.65;;;13.00;99.90;;;;;;5051081;28;20061;-56
2023/05/30 07:04:40;;;;;;;27.75;13.65;;;12.90;99.90;;;;;;5055071;28;20480;-63
2023/05/30 07:07:06;;;;;;;22.73;13.32;;;13.00;99.90;;;;;;5047923;28;20331;-63
2023/05/30 07:09:31;;;;;;;31.42;12.70;;;12.80;99.90;;;;;;5053877;28;20171;-64
2023/05/30 07:11:57;;;;;;;23.73;12.48;;;12.90;99.90;;;;;;5050976;28;20064;-64
2023/05/30 07:14:23;;;;;;;23.15;12.20;;;12.80;99.90;;;;;;5054573;28;20036;-63
2023/05/30 07:16:49;;;;;;;21.05;11.73;;;13.30;99.90;;;;;;5049227;28;20296;-67
2023/05/30 07:19:15;;;;;;;25.48;11.85;;;13.40;99.90;;;;;;5047558;28;20075;-67
2023/05/30 07:21:40;;;;;;;25.88;12.15;;;13.40;99.90;;;;;;5049057;28;20094;-67
2023/05/30 07:24:06;;;;;;;21.02;12.82;;;13.00;99.90;;;;;;5046554;28;20033;-67
2023/05/30 07:26:32;;;;;;;20.55;12.68;;;13.00;99.90;;;;;;5051574;28;20028;-67
2023/05/30 07:28:57;;;;;;;21.92;13.30;;;13.00;99.90;;;;;;5054345;28;20035;-64
2023/05/30 07:31:23;;;;;;;23.63;13.73;;;13.00;99.90;;;;;;5053499;28;20040;-68
2023/05/30 07:33:49;;;;;;;25.58;13.40;;;13.10;99.90;;;;;;5054338;28;20037;-68
2023/05/30 07:36:15;;;;;;;26.77;13.55;;;13.20;99.90;;;;;;5059270;28;20063;-67
2023/05/30 07:38:40;;;;;;;24.38;11.57;;;13.20;99.90;;;;;;5053944;28;20032;-67
2023/05/30 07:41:06;;;;;;;25.50;12.68;;;13.20;99.90;;;;;;5056197;28;20555;-67
2023/05/30 07:43:31;;;;;;;23.42;12.98;;;13.40;99.90;;;;;;5057427;28;20037;-67
2023/05/30 07:45:57;;;;;;;24.95;12.63;;;13.60;99.90;;;;;;5055307;28;20102;-68
2023/05/30 07:48:23;;;;;;;26.63;13.30;;;13.60;99.90;;;;;;5062840;28;20036;-67
2023/05/30 07:50:49;;;;;;;26.50;12.13;;;13.30;99.90;;;;;;5057125;28;20024;-68
2023/05/30 07:53:15;;;;;;;20.10;11.57;;;13.30;99.90;;;;;;5052274;28;20033;-67
2023/05/30 07:55:40;;;;;;;25.98;11.63;;;13.40;99.90;;;;;;5053939;28;20035;-68
2023/05/30 07:58:06;;;;;;;18.75;11.20;;;13.40;99.90;;;;;;5053856;28;20029;-67
2023/05/30 08:00:31;;;;;;;21.70;11.18;;;13.50;99.90;;;;;;5060623;28;20028;-67
2023/05/30 08:02:57;;;;;;;26.52;11.32;;;13.60;99.90;;;;;;5059836;28;20040;-67
2023/05/30 08:05:22;;;;;;;20.15;11.35;;;13.60;99.90;;;;;;5060302;28;20044;-67
2023/05/30 08:07:48;;;;;;;25.23;10.73;;;13.80;99.90;;;;;;5050742;28;20082;-67
2023/05/30 08:10:14;;;;;;;21.77;10.68;;;14.00;99.90;;;;;;5062269;28;20060;-68
2023/05/30 08:12:40;;;;;;;19.60;9.85;;;13.90;99.90;;;;;;5061969;28;20060;-68
2023/05/30 08:15:07;;;;;;;23.63;8.27;;;14.00;99.90;;;;;;5058059;28;20879;-56
2023/05/30 08:17:33;;;;;;;18.90;8.00;;;14.00;99.90;;;;;;5060720;28;20045;-56
2023/05/30 08:20:00;;;;;;;19.05;8.10;;;14.20;99.90;;;;;;5058909;28;20139;-56
2023/05/30 08:22:25;;;;;;;18.75;8.32;;;14.10;99.90;;;;;;5057902;28;20036;-56
2023/05/30 08:24:55;;;;;;;15.85;7.82;;;14.10;99.90;;;;;;5056973;28;20047;-57
2023/05/30 08:27:21;;;;;;;19.70;7.70;;;14.00;99.90;;;;;;5060817;28;20110;-57
2023/05/30 08:29:50;;;;;;;19.83;9.05;;;13.90;99.90;;;;;;5059039;28;20557;-56
2023/05/30 08:32:17;;;;;;;22.73;9.63;;;14.00;99.90;;;;;;5051844;28;20443;-57
2023/05/30 08:34:43;;;;;;;24.38;9.90;;;13.90;99.90;;;;;;5054130;28;20048;-56
2023/05/30 08:37:09;;;;;;;24.42;9.40;;;14.10;99.90;;;;;;5054049;28;20033;-56
2023/05/30 08:39:34;;;;;;;20.45;9.85;;;14.00;99.90;;;;;;5053558;28;20130;-57
2023/05/30 08:42:00;;;;;;;20.23;8.95;;;14.10;99.90;;;;;;5052677;28;20568;-56
2023/05/30 08:44:28;;;;;;;18.55;9.20;;;14.40;99.90;;;;;;5056921;28;20484;-56
2023/05/30 08:46:55;;;;;;;15.95;7.50;;;14.50;99.90;;;;;;5056767;28;20045;-56
2023/05/30 08:49:23;;;;;;;15.43;6.90;;;14.60;99.90;;;;;;5058580;28;20037;-57
2023/05/30 08:51:50;;;;;;;17.92;6.82;;;14.80;99.90;;;;;;5055164;28;20047;-57
2023/05/30 08:54:19;;;;;;;15.38;6.20;;;14.60;99.90;;;;;;5055406;28;20031;-57
2023/05/30 08:56:58;;;;;;;15.45;6.53;;;14.50;99.90;;;;;;5053275;28;20025;-57
2023/05/30 08:59:26;;;;;;;18.30;7.30;;;14.90;99.90;;;;;;5055684;28;20052;-57
2023/05/30 09:01:53;;;;;;;14.90;6.55;;;14.70;99.90;;;;;;5055778;28;20036;-57
2023/05/30 09:04:20;;;;;;;18.00;6.53;;;14.80;99.90;;;;;;5058185;28;20142;-57
2023/05/30 09:06:47;;;;;;;20.10;7.45;;;14.80;99.90;;;;;;5053543;28;20036;-56
2023/05/30 09:09:14;;;;;;;15.20;6.65;;;14.90;99.90;;;;;;5059663;28;20029;-57
2023/05/30 09:11:43;;;;;;;19.27;6.93;;;14.90;99.90;;;;;;5056517;28;20024;-57
2023/05/30 09:14:09;;;;;;;14.65;6.03;;;15.10;99.90;;;;;;5056769;28;20056;-56
2023/05/30 09:16:36;;;;;;;17.70;5.90;;;15.20;99.90;;;;;;5046878;28;20037;-56
2023/05/30 09:19:02;;;;;;;18.13;5.68;;;15.30;99.90;;;;;;5056899;28;20040;-56
2023/05/30 09:21:29;;;;;;;20.77;6.00;;;15.30;99.90;;;;;;5058634;28;20051;-57
2023/05/30 09:23:54;;;;;;;16.02;6.50;;;15.10;99.90;;;;;;5057947;28;20124;-57
2023/05/30 09:26:20;;;;;;;19.98;5.97;;;15.00;99.90;;;;;;5048939;28;20132;-57
2023/05/30 09:28:47;;;;;;;11.88;4.60;;;15.30;99.90;;;;;;5060284;28;20024;-57
2023/05/30 09:31:14;;;;;;;20.52;6.00;;;15.40;99.90;;;;;;5052797;28;20032;-57
2023/05/30 09:33:45;;;;;;;17.23;6.10;;;15.40;99.90;;;;;;5057861;28;20032;-57
2023/05/30 09:36:18;;;;;;;12.82;5.22;;;15.40;99.90;;;;;;5055650;28;20028;-57
2023/05/30 09:39:05;;;;;;;21.45;5.88;;;15.40;99.90;;;;;;5063389;28;20504;-56
2023/05/30 09:41:31;;;;;;;16.42;4.95;;;15.70;99.90;;;;;;5051930;28;20489;-57
2023/05/30 09:43:58;;;;;;;17.80;6.13;;;15.80;99.90;;;;;;5064597;28;20033;-57
2023/05/30 09:46:26;;;;;;;15.93;5.60;;;15.70;99.90;;;;;;5061088;28;20577;-56
2023/05/30 09:48:52;;;;;;;15.65;5.40;;;15.60;99.90;;;;;;5055622;28;20059;-56
2023/05/30 09:51:21;;;;;;;16.05;6.25;;;15.70;99.90;;;;;;5059890;28;20029;-57
2023/05/30 09:54:01;;;;;;;12.98;5.40;;;16.00;99.90;;;;;;5046451;28;20036;-57
2023/05/30 09:56:36;;;;;;;15.25;5.47;;;15.80;99.90;;;;;;5056571;28;20060;-56
2023/05/30 09:59:07;;;;;;;12.52;5.60;;;16.20;99.90;;;;;;5056641;28;20039;-57
2023/05/30 10:01:46;;;;;;;12.15;5.15;;;16.10;99.90;;;;;;5059152;28;20086;-57
2023/05/30 10:04:22;;;;;;;17.83;5.57;;;16.10;99.90;;;;;;5059147;28;20028;-57
2023/05/30 10:06:51;;;;;;;18.67;5.63;;;16.20;99.90;;;;;;5056127;28;20032;-56
2023/05/30 10:09:19;;;;;;;16.83;6.85;;;16.00;99.90;;;;;;5062486;28;20154;-56
2023/05/30 10:11:45;;;;;;;15.00;5.88;;;16.00;99.90;;;;;;5061459;28;20059;-57
2023/05/30 10:14:11;;;;;;;14.73;5.82;;;16.20;99.90;;;;;;5058145;28;20065;-57
2023/05/30 10:16:48;;;;;;;15.75;5.95;;;16.20;99.90;;;;;;5061670;28;20656;-57
2023/05/30 10:19:18;;;;;;;14.23;5.15;;;16.10;99.90;;;;;;5054685;28;20553;-57
2023/05/30 10:21:45;;;;;;;17.75;5.57;;;16.40;99.90;;;;;;5048799;28;20041;-57
2023/05/30 10:24:15;;;;;;;18.27;6.00;;;16.80;99.90;;;;;;5056193;28;20078;-55
2023/05/30 10:26:48;;;;;;;17.38;6.28;;;16.60;99.90;;;;;;5049008;28;20033;-55
2023/05/30 10:29:17;;;;;;;15.20;5.40;;;16.30;99.90;;;;;;5056289;28;20060;-57
2023/05/30 10:31:43;;;;;;;13.88;5.57;;;16.60;99.90;;;;;;5055295;28;20519;-56
2023/05/30 10:34:13;;;;;;;15.20;5.57;;;16.80;99.90;;;;;;5052570;28;20436;-56
2023/05/30 10:36:42;;;;;;;12.77;5.60;;;16.90;99.90;;;;;;5053071;28;20063;-56
2023/05/30 10:39:38;;;;;;;15.52;5.80;;;16.90;99.90;;;;;;5052456;28;20044;-56
2023/05/30 10:42:12;;;;;;;14.85;5.90;;;16.60;99.90;;;;;;5058072;28;20029;-56
2023/05/30 10:44:43;;;;;;;;;;;16.60;99.90;;;;;;5063012;28;20040;-56
2023/05/30 10:47:18;;;;;;;15.90;5.70;;;16.50;99.90;;;;;;5057615;28;19912;-56
2023/05/30 10:49:46;;;;;;;18.75;6.20;;;16.90;99.90;;;;;;5053371;28;20040;-56
2023/05/30 10:52:12;;;;;;;15.38;6.38;;;17.00;99.90;;;;;;5049292;28;20630;-57
2023/05/30 10:54:42;;;;;;;16.58;6.53;;;16.80;99.90;;;;;;5053225;28;20511;-56
2023/05/30 10:57:31;;;;;;;13.10;6.30;;;16.90;99.90;;;;;;5050233;28;20033;-56
2023/05/30 11:00:42;;;;;;;13.90;6.00;;;16.90;99.90;;;;;;5060855;28;20032;-56
2023/05/30 11:03:07;;;;;;;17.17;6.38;;;17.10;99.90;;;;;;5056543;28;20095;-56
2023/05/30 11:05:33;;;;;;;16.60;6.00;;;17.10;99.90;;;;;;5049879;28;20444;-56
2023/05/30 11:08:01;;;;;;;16.05;5.63;;;17.20;99.90;;;;;;5056157;28;20036;-58
2023/05/30 11:10:29;;;;;;;13.88;5.07;;;17.30;99.90;;;;;;5055427;28;20115;-57
2023/05/30 11:13:14;;;;;;;15.32;5.82;;;17.30;99.90;;;;;;5055883;28;20069;-58
2023/05/30 11:15:45;;;;;;;13.25;4.95;;;17.80;99.90;;;;;;5054605;28;20400;-57
2023/05/30 11:18:18;;;;;;;14.90;5.47;;;17.50;99.90;;;;;;5055386;28;20025;-57
2023/05/30 11:20:54;;;;;;;16.33;5.25;;;17.70;99.90;;;;;;5054690;28;20048;-58
2023/05/30 11:23:21;;;;;;;15.05;6.13;;;17.70;99.90;;;;;;5056868;28;20377;-57
2023/05/30 11:25:47;;;;;;;12.75;5.05;;;17.50;99.90;;;;;;5061480;28;20326;-59
2023/05/30 11:28:15;;;;;;;16.50;5.43;;;17.80;99.90;;;;;;5057389;28;20104;-57
2023/05/30 11:30:48;;;;;;;15.18;5.13;;;18.00;99.90;;;;;;5055931;28;20036;-58
2023/05/30 11:33:17;;;;;;;14.85;5.35;;;17.80;99.90;;;;;;5060786;28;20029;-57
2023/05/30 11:35:46;;;;;;;13.35;5.30;;;17.70;99.90;;;;;;5062266;28;20545;-57
2023/05/30 11:38:19;;;;;;;12.98;5.28;;;17.60;99.90;;;;;;5055385;28;20101;-58
2023/05/30 11:40:45;;;;;;;11.45;4.90;;;17.70;99.90;;;;;;5057651;28;20056;-58
2023/05/30 11:43:15;;;;;;;18.63;5.20;;;17.60;99.90;;;;;;5059850;28;20373;-58
2023/05/30 11:45:40;;;;;;;12.65;4.60;;;17.90;99.90;;;;;;5055673;28;20036;-57
2023/05/30 11:48:08;;;;;;;20.25;4.80;;;18.10;99.90;;;;;;5054528;28;20339;-57
2023/05/30 11:50:41;;;;;;;12.30;5.15;;;18.20;99.90;;;;;;5060189;28;20565;-58
2023/05/30 11:53:25;;;;;;;19.58;6.05;;;18.00;99.90;;;;;;5057746;28;20032;-57
2023/05/30 11:55:50;;;;;;;11.13;4.50;;;18.10;99.90;;;;;;5058757;28;20037;-58
2023/05/30 11:58:17;;;;;;;13.40;5.90;;;18.00;99.90;;;;;;5058945;28;20040;-57
2023/05/30 12:00:44;;;;;;;20.73;5.00;;;17.80;99.90;;;;;;5057482;28;20150;-58
2023/05/30 12:03:16;;;;;;;12.25;5.28;;;17.90;99.90;;;;;;5060554;28;20029;-57
2023/05/30 12:05:46;;;;;;;14.85;4.35;;;18.10;99.90;;;;;;5056655;28;20048;-58
2023/05/30 12:08:18;;;;;;;16.02;5.10;;;18.10;99.90;;;;;;5060047;28;20029;-59
2023/05/30 12:10:44;;;;;;;13.85;5.15;;;18.20;99.90;;;;;;5061403;28;20040;-58
2023/05/30 12:13:10;;;;;;;16.05;5.85;;;18.10;99.90;;;;;;5060340;28;20033;-57
2023/05/30 12:15:37;;;;;;;19.73;6.35;;;17.90;99.90;;;;;;5061191;28;20186;-58
2023/05/30 12:18:03;;;;;;;16.17;5.15;;;18.00;99.90;;;;;;5068784;28;20059;-58
2023/05/30 12:20:29;;;;;;;14.13;5.07;;;18.20;99.90;;;;;;5060410;28;20089;-57
2023/05/30 12:22:55;;;;;;;14.15;5.43;;;18.30;99.90;;;;;;5052093;28;20127;-57
2023/05/30 12:25:27;;;;;;;14.60;6.05;;;18.40;99.90;;;;;;5056980;28;20174;-57
2023/05/30 12:27:55;;;;;;;9.77;4.75;;;18.40;99.90;;;;;;5060894;28;20039;-57
2023/05/30 12:30:22;;;;;;;15.32;5.80;;;18.50;99.90;;;;;;5063145;28;20031;-57
2023/05/30 12:32:47;;;;;;;15.35;5.60;;;18.50;99.90;;;;;;5056941;28;20036;-57
2023/05/30 12:35:15;;;;;;;15.10;5.50;;;18.40;99.90;;;;;;5057901;28;20029;-57
2023/05/30 12:37:41;;;;;;;14.32;4.95;;;18.40;99.90;;;;;;5060738;28;20119;-56